ALK161 VCBI-VOTV
Flight info
| Callsign | ALK161 |
|---|---|
| Flight time | 0h 38m |
| Altitude | 26000 |
| Route | BASUR1D BASUR BACOL |
| Aircraft | A20N/M-SDE2E3FGHIRWXY/LB1 |
Departure
| Time | 2026-04-22 15:15 |
|---|---|
| Airport | Bandaranaike International Colombo Airport (VCBI) |
Arrival
| Time | 2026-04-22 15:53 |
|---|---|
| Airport | Thiruvananthapuram International Airport (VOTV) |
| Time | Latitude | Longitude | Altitude | Speed | Heading |
|---|---|---|---|---|---|
| 2026-04-22 14:52 | 7.17615 | 79.88567 | 30 ft | 0 kts | 217° |
| 2026-04-22 15:05 | 7.17628 | 79.88577 | 30 ft | 3 kts | 217° |
| 2026-04-22 15:05 | 7.17635 | 79.88583 | 30 ft | 3 kts | 217° |
| 2026-04-22 15:05 | 7.17649 | 79.88594 | 30 ft | 3 kts | 217° |
| 2026-04-22 15:05 | 7.17664 | 79.88605 | 30 ft | 3 kts | 217° |
| 2026-04-22 15:06 | 7.17677 | 79.88617 | 30 ft | 3 kts | 242° |
| 2026-04-22 15:06 | 7.17680 | 79.88624 | 30 ft | 2 kts | 253° |
| 2026-04-22 15:06 | 7.17681 | 79.88642 | 30 ft | 3 kts | 292° |
| 2026-04-22 15:06 | 7.17681 | 79.88643 | 30 ft | 0 kts | 295° |
| 2026-04-22 15:09 | 7.17699 | 79.88627 | 30 ft | 7 kts | 323° |
| 2026-04-22 15:09 | 7.17738 | 79.88594 | 30 ft | 8 kts | 314° |
| 2026-04-22 15:09 | 7.17772 | 79.88550 | 30 ft | 8 kts | 306° |
| 2026-04-22 15:10 | 7.17807 | 79.88503 | 30 ft | 9 kts | 309° |
| 2026-04-22 15:10 | 7.17844 | 79.88455 | 30 ft | 9 kts | 308° |
| 2026-04-22 15:10 | 7.17896 | 79.88440 | 31 ft | 9 kts | 20° |
| 2026-04-22 15:10 | 7.17948 | 79.88472 | 31 ft | 9 kts | 34° |
| 2026-04-22 15:11 | 7.17995 | 79.88510 | 30 ft | 9 kts | 37° |
| 2026-04-22 15:11 | 7.18061 | 79.88557 | 30 ft | 14 kts | 33° |
| 2026-04-22 15:11 | 7.18149 | 79.88624 | 30 ft | 18 kts | 41° |
| 2026-04-22 15:11 | 7.18252 | 79.88705 | 30 ft | 19 kts | 34° |
| 2026-04-22 15:12 | 7.18359 | 79.88786 | 30 ft | 19 kts | 37° |
| 2026-04-22 15:12 | 7.18466 | 79.88869 | 31 ft | 20 kts | 38° |
| 2026-04-22 15:12 | 7.18575 | 79.88953 | 31 ft | 20 kts | 38° |
| 2026-04-22 15:12 | 7.18695 | 79.89044 | 31 ft | 23 kts | 36° |
| 2026-04-22 15:13 | 7.18821 | 79.89141 | 31 ft | 23 kts | 37° |
| 2026-04-22 15:13 | 7.18950 | 79.89239 | 30 ft | 24 kts | 37° |
| 2026-04-22 15:13 | 7.19082 | 79.89340 | 30 ft | 24 kts | 37° |
| 2026-04-22 15:13 | 7.19176 | 79.89403 | 30 ft | 6 kts | 19° |
| 2026-04-22 15:14 | 7.19224 | 79.89389 | 30 ft | 12 kts | 318° |
| 2026-04-22 15:14 | 7.19283 | 79.89303 | 30 ft | 15 kts | 288° |
| 2026-04-22 15:14 | 7.19168 | 79.89179 | 31 ft | 52 kts | 217° |
| 2026-04-22 15:14 | 7.18687 | 79.88812 | 33 ft | 119 kts | 217° |
| 2026-04-22 15:15 | 7.17875 | 79.88190 | 64 ft | 167 kts | 216° |
| 2026-04-22 15:15 | 7.16957 | 79.87480 | 661 ft | 162 kts | 217° |
| 2026-04-22 15:15 | 7.16121 | 79.86759 | 1347 ft | 159 kts | 228° |
| 2026-04-22 15:15 | 7.15730 | 79.85675 | 1729 ft | 188 kts | 265° |
| 2026-04-22 15:16 | 7.15632 | 79.84189 | 1900 ft | 233 kts | 265° |
| 2026-04-22 15:16 | 7.15700 | 79.82482 | 2468 ft | 255 kts | 279° |
| 2026-04-22 15:16 | 7.16296 | 79.80763 | 3223 ft | 265 kts | 296° |
| 2026-04-22 15:16 | 7.17224 | 79.79144 | 4057 ft | 270 kts | 302° |
| 2026-04-22 15:17 | 7.18285 | 79.77561 | 4902 ft | 275 kts | 306° |
| 2026-04-22 15:17 | 7.19397 | 79.76010 | 5742 ft | 278 kts | 307° |
| 2026-04-22 15:17 | 7.20562 | 79.74438 | 6576 ft | 282 kts | 307° |
| 2026-04-22 15:17 | 7.21752 | 79.72858 | 7397 ft | 284 kts | 308° |
| 2026-04-22 15:18 | 7.22961 | 79.71266 | 8230 ft | 287 kts | 308° |
| 2026-04-22 15:18 | 7.24158 | 79.69639 | 9069 ft | 291 kts | 303° |
| 2026-04-22 15:18 | 7.25120 | 79.67840 | 9889 ft | 294 kts | 296° |
| 2026-04-22 15:18 | 7.25988 | 79.65934 | 10436 ft | 307 kts | 295° |
| 2026-04-22 15:19 | 7.26883 | 79.63911 | 10798 ft | 324 kts | 295° |
| 2026-04-22 15:19 | 7.27812 | 79.61808 | 11373 ft | 332 kts | 295° |
| 2026-04-22 15:19 | 7.28761 | 79.59668 | 12040 ft | 336 kts | 295° |
| 2026-04-22 15:19 | 7.29724 | 79.57505 | 12735 ft | 340 kts | 295° |
| 2026-04-22 15:20 | 7.30368 | 79.56060 | 13197 ft | 342 kts | 295° |
| 2026-04-22 15:20 | 7.31681 | 79.53116 | 14092 ft | 347 kts | 295° |
| 2026-04-22 15:20 | 7.32676 | 79.50887 | 14720 ft | 351 kts | 295° |
| 2026-04-22 15:20 | 7.33683 | 79.48635 | 15367 ft | 354 kts | 295° |
| 2026-04-22 15:21 | 7.34699 | 79.46363 | 16010 ft | 358 kts | 295° |
| 2026-04-22 15:21 | 7.35726 | 79.44065 | 16660 ft | 361 kts | 295° |
| 2026-04-22 15:21 | 7.36762 | 79.41749 | 17289 ft | 364 kts | 295° |
| 2026-04-22 15:21 | 7.37808 | 79.39410 | 17888 ft | 368 kts | 295° |
| 2026-04-22 15:22 | 7.38863 | 79.37051 | 18432 ft | 372 kts | 295° |
| 2026-04-22 15:22 | 7.39930 | 79.34664 | 18921 ft | 375 kts | 295° |
| 2026-04-22 15:22 | 7.41004 | 79.32261 | 19418 ft | 378 kts | 294° |
| 2026-04-22 15:22 | 7.42088 | 79.29833 | 19921 ft | 381 kts | 294° |
| 2026-04-22 15:23 | 7.43180 | 79.27388 | 20415 ft | 385 kts | 294° |
| 2026-04-22 15:23 | 7.44281 | 79.24922 | 20928 ft | 388 kts | 294° |
| 2026-04-22 15:23 | 7.45392 | 79.22436 | 21444 ft | 391 kts | 294° |
| 2026-04-22 15:23 | 7.46513 | 79.19925 | 21971 ft | 394 kts | 294° |
| 2026-04-22 15:24 | 7.47645 | 79.17394 | 22492 ft | 398 kts | 294° |
| 2026-04-22 15:24 | 7.48788 | 79.14843 | 23032 ft | 401 kts | 293° |
| 2026-04-22 15:24 | 7.49939 | 79.12268 | 23518 ft | 405 kts | 293° |
| 2026-04-22 15:24 | 7.51097 | 79.09674 | 23945 ft | 408 kts | 293° |
| 2026-04-22 15:25 | 7.52267 | 79.07051 | 24378 ft | 412 kts | 293° |
| 2026-04-22 15:25 | 7.53446 | 79.04409 | 24802 ft | 415 kts | 292° |
| 2026-04-22 15:25 | 7.54631 | 79.01753 | 25230 ft | 417 kts | 292° |
| 2026-04-22 15:25 | 7.55824 | 78.99076 | 25637 ft | 420 kts | 292° |
| 2026-04-22 15:26 | 7.57022 | 78.96384 | 25832 ft | 417 kts | 292° |
| 2026-04-22 15:26 | 7.58187 | 78.93772 | 25859 ft | 402 kts | 292° |
| 2026-04-22 15:26 | 7.59306 | 78.91263 | 25864 ft | 394 kts | 292° |
| 2026-04-22 15:26 | 7.60425 | 78.88751 | 25869 ft | 392 kts | 292° |
| 2026-04-22 15:27 | 7.61542 | 78.86243 | 25871 ft | 392 kts | 292° |
| 2026-04-22 15:27 | 7.62659 | 78.83733 | 25870 ft | 392 kts | 292° |
| 2026-04-22 15:27 | 7.63775 | 78.81227 | 25872 ft | 392 kts | 292° |
| 2026-04-22 15:27 | 7.64891 | 78.78719 | 25870 ft | 392 kts | 292° |
| 2026-04-22 15:28 | 7.65645 | 78.77025 | 25872 ft | 392 kts | 292° |
| 2026-04-22 15:28 | 7.67122 | 78.73706 | 25868 ft | 392 kts | 292° |
| 2026-04-22 15:28 | 7.67862 | 78.72044 | 25868 ft | 392 kts | 292° |
| 2026-04-22 15:28 | 7.68977 | 78.69537 | 25869 ft | 392 kts | 292° |
| 2026-04-22 15:29 | 7.70091 | 78.67034 | 25869 ft | 392 kts | 292° |
| 2026-04-22 15:29 | 7.71205 | 78.64531 | 25868 ft | 392 kts | 292° |
| 2026-04-22 15:29 | 7.72318 | 78.62028 | 25866 ft | 391 kts | 292° |
| 2026-04-22 15:30 | 7.74551 | 78.57019 | 25862 ft | 391 kts | 292° |
| 2026-04-22 15:30 | 7.75666 | 78.54516 | 25865 ft | 391 kts | 292° |
| 2026-04-22 15:30 | 7.76780 | 78.52012 | 25866 ft | 391 kts | 292° |
| 2026-04-22 15:30 | 7.77893 | 78.49509 | 25863 ft | 391 kts | 292° |
| 2026-04-22 15:31 | 7.79004 | 78.47007 | 25864 ft | 391 kts | 292° |
| 2026-04-22 15:31 | 7.80117 | 78.44502 | 25865 ft | 391 kts | 292° |
| 2026-04-22 15:31 | 7.81228 | 78.41999 | 25864 ft | 391 kts | 292° |
| 2026-04-22 15:31 | 7.82339 | 78.39498 | 25864 ft | 391 kts | 292° |
| 2026-04-22 15:32 | 7.83449 | 78.36996 | 25867 ft | 391 kts | 292° |
| 2026-04-22 15:32 | 7.84559 | 78.34494 | 25863 ft | 391 kts | 292° |
| 2026-04-22 15:32 | 7.85668 | 78.31995 | 25864 ft | 391 kts | 292° |
| 2026-04-22 15:32 | 7.86778 | 78.29493 | 25864 ft | 391 kts | 292° |
| 2026-04-22 15:33 | 7.87886 | 78.26994 | 25863 ft | 391 kts | 292° |
| 2026-04-22 15:33 | 7.88996 | 78.24491 | 25865 ft | 390 kts | 292° |
| 2026-04-22 15:33 | 7.90104 | 78.21992 | 25862 ft | 390 kts | 292° |
| 2026-04-22 15:33 | 7.91213 | 78.19492 | 25863 ft | 390 kts | 292° |
| 2026-04-22 15:34 | 7.92318 | 78.16992 | 25864 ft | 390 kts | 292° |
| 2026-04-22 15:34 | 7.93362 | 78.14468 | 25842 ft | 389 kts | 289° |
| 2026-04-22 15:34 | 7.94310 | 78.11926 | 25338 ft | 388 kts | 288° |
| 2026-04-22 15:34 | 7.95246 | 78.09349 | 24676 ft | 393 kts | 288° |
| 2026-04-22 15:35 | 7.96186 | 78.06758 | 24116 ft | 393 kts | 288° |
| 2026-04-22 15:35 | 7.97127 | 78.04171 | 23591 ft | 393 kts | 288° |
| 2026-04-22 15:35 | 7.98069 | 78.01584 | 22989 ft | 392 kts | 288° |
| 2026-04-22 15:35 | 7.99006 | 77.99013 | 22449 ft | 389 kts | 288° |
| 2026-04-22 15:36 | 7.99924 | 77.96500 | 21957 ft | 385 kts | 289° |
| 2026-04-22 15:36 | 8.00844 | 77.93979 | 21440 ft | 381 kts | 289° |
| 2026-04-22 15:36 | 8.01757 | 77.91478 | 20921 ft | 378 kts | 289° |
| 2026-04-22 15:36 | 8.02664 | 77.88997 | 20332 ft | 378 kts | 289° |
| 2026-04-22 15:37 | 8.03585 | 77.86498 | 19476 ft | 384 kts | 290° |
| 2026-04-22 15:37 | 8.04531 | 77.83942 | 18647 ft | 391 kts | 290° |
| 2026-04-22 15:37 | 8.05474 | 77.81401 | 18319 ft | 381 kts | 290° |
| 2026-04-22 15:37 | 8.06389 | 77.78937 | 18071 ft | 369 kts | 291° |
| 2026-04-22 15:38 | 8.07286 | 77.76521 | 17474 ft | 367 kts | 291° |
| 2026-04-22 15:38 | 8.09073 | 77.71723 | 16311 ft | 363 kts | 291° |
| 2026-04-22 15:38 | 8.09956 | 77.69348 | 15774 ft | 360 kts | 291° |
| 2026-04-22 15:39 | 8.10832 | 77.66989 | 15228 ft | 356 kts | 291° |
| 2026-04-22 15:39 | 8.11692 | 77.64670 | 14471 ft | 351 kts | 291° |
| 2026-04-22 15:39 | 8.12542 | 77.62378 | 13701 ft | 348 kts | 291° |
| 2026-04-22 15:39 | 8.13383 | 77.60114 | 13132 ft | 339 kts | 292° |
| 2026-04-22 15:40 | 8.14195 | 77.57924 | 12881 ft | 327 kts | 292° |
| 2026-04-22 15:40 | 8.14978 | 77.55811 | 12689 ft | 315 kts | 292° |
| 2026-04-22 15:40 | 8.15733 | 77.53775 | 12464 ft | 305 kts | 292° |
| 2026-04-22 15:40 | 8.16470 | 77.51789 | 12146 ft | 300 kts | 292° |
| 2026-04-22 15:41 | 8.17198 | 77.49828 | 11772 ft | 297 kts | 292° |
| 2026-04-22 15:41 | 8.17922 | 77.47876 | 11381 ft | 296 kts | 292° |
| 2026-04-22 15:41 | 8.18641 | 77.45937 | 10947 ft | 296 kts | 292° |
| 2026-04-22 15:41 | 8.19363 | 77.43985 | 10514 ft | 296 kts | 292° |
| 2026-04-22 15:42 | 8.20076 | 77.42056 | 10249 ft | 290 kts | 292° |
| 2026-04-22 15:42 | 8.20768 | 77.40183 | 10098 ft | 280 kts | 292° |
| 2026-04-22 15:42 | 8.21437 | 77.38372 | 9919 ft | 271 kts | 292° |
| 2026-04-22 15:42 | 8.22092 | 77.36600 | 9619 ft | 268 kts | 292° |
| 2026-04-22 15:43 | 8.22743 | 77.34845 | 9276 ft | 266 kts | 292° |
| 2026-04-22 15:43 | 8.23390 | 77.33099 | 8932 ft | 265 kts | 292° |
| 2026-04-22 15:43 | 8.24039 | 77.31347 | 8540 ft | 266 kts | 292° |
| 2026-04-22 15:43 | 8.24680 | 77.29613 | 8250 ft | 262 kts | 292° |
| 2026-04-22 15:44 | 8.25315 | 77.27895 | 7898 ft | 262 kts | 292° |
| 2026-04-22 15:44 | 8.25962 | 77.26149 | 7441 ft | 266 kts | 292° |
| 2026-04-22 15:44 | 8.26606 | 77.24407 | 7134 ft | 264 kts | 292° |
| 2026-04-22 15:44 | 8.27244 | 77.22680 | 6815 ft | 262 kts | 292° |
| 2026-04-22 15:45 | 8.27877 | 77.20966 | 6504 ft | 258 kts | 292° |
| 2026-04-22 15:45 | 8.28502 | 77.19273 | 6110 ft | 257 kts | 292° |
| 2026-04-22 15:45 | 8.29118 | 77.17609 | 5669 ft | 256 kts | 292° |
| 2026-04-22 15:45 | 8.29739 | 77.15931 | 5247 ft | 254 kts | 291° |
| 2026-04-22 15:46 | 8.30343 | 77.14300 | 5056 ft | 241 kts | 291° |
| 2026-04-22 15:46 | 8.30914 | 77.12757 | 4904 ft | 229 kts | 291° |
| 2026-04-22 15:46 | 8.31457 | 77.11292 | 4775 ft | 216 kts | 291° |
| 2026-04-22 15:46 | 8.31968 | 77.09913 | 4640 ft | 204 kts | 290° |
| 2026-04-22 15:47 | 8.32450 | 77.08611 | 4519 ft | 191 kts | 290° |
| 2026-04-22 15:47 | 8.32921 | 77.07409 | 4393 ft | 176 kts | 296° |
| 2026-04-22 15:47 | 8.33565 | 77.06416 | 4187 ft | 163 kts | 310° |
| 2026-04-22 15:47 | 8.34300 | 77.05624 | 4021 ft | 148 kts | 315° |
| 2026-04-22 15:48 | 8.35019 | 77.04918 | 3742 ft | 142 kts | 316° |
| 2026-04-22 15:48 | 8.35721 | 77.04234 | 3415 ft | 139 kts | 315° |
| 2026-04-22 15:48 | 8.36409 | 77.03557 | 3090 ft | 137 kts | 314° |
| 2026-04-22 15:48 | 8.37087 | 77.02887 | 2773 ft | 136 kts | 314° |
| 2026-04-22 15:49 | 8.37757 | 77.02225 | 2476 ft | 134 kts | 314° |
| 2026-04-22 15:49 | 8.38422 | 77.01572 | 2305 ft | 133 kts | 315° |
| 2026-04-22 15:49 | 8.39089 | 77.00920 | 2134 ft | 134 kts | 315° |
| 2026-04-22 15:49 | 8.39756 | 77.00267 | 1973 ft | 133 kts | 315° |
| 2026-04-22 15:50 | 8.40422 | 76.99615 | 1802 ft | 133 kts | 315° |
| 2026-04-22 15:50 | 8.41085 | 76.98967 | 1639 ft | 132 kts | 315° |
| 2026-04-22 15:50 | 8.41744 | 76.98321 | 1461 ft | 132 kts | 315° |
| 2026-04-22 15:50 | 8.42401 | 76.97678 | 1291 ft | 131 kts | 315° |
| 2026-04-22 15:51 | 8.43057 | 76.97035 | 1123 ft | 131 kts | 315° |
| 2026-04-22 15:51 | 8.43713 | 76.96393 | 968 ft | 131 kts | 315° |
| 2026-04-22 15:51 | 8.44367 | 76.95753 | 815 ft | 131 kts | 315° |
| 2026-04-22 15:51 | 8.45021 | 76.95112 | 652 ft | 131 kts | 315° |
| 2026-04-22 15:52 | 8.45672 | 76.94474 | 479 ft | 130 kts | 315° |
| 2026-04-22 15:52 | 8.46322 | 76.93837 | 324 ft | 131 kts | 315° |
| 2026-04-22 15:52 | 8.46978 | 76.93203 | 140 ft | 131 kts | 312° |
| 2026-04-22 15:52 | 8.47616 | 76.92575 | 38 ft | 120 kts | 315° |
| 2026-04-22 15:53 | 8.48134 | 76.92071 | 36 ft | 89 kts | 315° |
| 2026-04-22 15:53 | 8.48492 | 76.91722 | 37 ft | 53 kts | 317° |
| 2026-04-22 15:53 | 8.48637 | 76.91578 | 38 ft | 0 kts | 316° |
| 2026-04-22 15:53 | 8.48642 | 76.91574 | 38 ft | 5 kts | 315° |
| 2026-04-22 15:54 | 8.48714 | 76.91502 | 38 ft | 25 kts | 314° |
| 2026-04-22 15:54 | 8.48807 | 76.91485 | 37 ft | 3 kts | 40° |
| 2026-04-22 15:54 | 8.48808 | 76.91486 | 37 ft | 2 kts | 41° |
| 2026-04-22 15:54 | 8.48837 | 76.91515 | 37 ft | 10 kts | 46° |
| 2026-04-22 15:55 | 8.48856 | 76.91594 | 36 ft | 16 kts | 131° |
| 2026-04-22 15:55 | 8.48766 | 76.91684 | 36 ft | 20 kts | 134° |
| 2026-04-22 15:55 | 8.48665 | 76.91783 | 36 ft | 20 kts | 136° |
| 2026-04-22 15:55 | 8.48561 | 76.91886 | 36 ft | 21 kts | 136° |
| 2026-04-22 15:56 | 8.48514 | 76.91931 | 36 ft | 5 kts | 135° |
| 2026-04-22 15:56 | 8.48479 | 76.91991 | 36 ft | 12 kts | 72° |
| 2026-04-22 15:56 | 8.48534 | 76.92055 | 36 ft | 12 kts | 46° |
| 2026-04-22 15:56 | 8.48594 | 76.92119 | 36 ft | 13 kts | 45° |
| 2026-04-22 15:57 | 8.48623 | 76.92148 | 36 ft | 2 kts | 44° |
| 2026-04-22 15:57 | 8.48629 | 76.92154 | 35 ft | 0 kts | 44° |